Time;durP1;ratioP1;P1;durP2;ratioP2;P2;SDS_P1;SDS_P2;PMS_P1;PMS_P2;Temp;Humidity;BMP_temperature;BMP_pressure;BME280_temperature;BME280_humidity;BME280_pressure;Samples;Min_cycle;Max_cycle;Signal;HPM_P1;HPM_P2
2022/07/03 00:01:23;;;;;;;11.57;2.80;;;29.20;91.60;;;;;;5116441;28;20212;-47
2022/07/03 00:03:50;;;;;;;5.07;1.92;;;29.20;91.50;;;;;;5112272;28;20058;-44
2022/07/03 00:06:16;;;;;;;6.40;2.28;;;29.10;91.30;;;;;;5103689;28;20046;-51
2022/07/03 00:08:43;;;;;;;7.70;2.55;;;29.10;91.70;;;;;;5103690;28;20355;-45
2022/07/03 00:11:11;;;;;;;6.13;2.38;;;29.10;91.90;;;;;;5103717;28;20294;-51
2022/07/03 00:13:37;;;;;;;8.63;2.38;;;29.00;91.70;;;;;;5103670;28;20028;-44
2022/07/03 00:16:04;;;;;;;6.07;2.92;;;29.00;91.50;;;;;;5103986;28;20055;-46
2022/07/03 00:18:31;;;;;;;6.97;2.15;;;29.00;91.60;;;;;;5103772;28;20024;-41
2022/07/03 00:21:03;;;;;;;7.15;2.28;;;29.00;91.70;;;;;;5105302;28;20019;-51
2022/07/03 00:23:38;;;;;;;13.60;3.88;;;29.00;91.60;;;;;;5112885;28;20347;-46
2022/07/03 00:26:06;;;;;;;10.07;3.90;;;28.90;91.60;;;;;;5103377;28;20038;-47
2022/07/03 00:28:34;;;;;;;6.22;2.72;;;28.90;91.70;;;;;;5103899;28;20032;-53
2022/07/03 00:31:02;;;;;;;6.68;2.50;;;28.90;91.90;;;;;;5113534;28;20243;-45
2022/07/03 00:33:33;;;;;;;7.65;2.25;;;28.80;92.20;;;;;;5104144;28;20068;-51
2022/07/03 00:36:00;;;;;;;6.20;2.50;;;28.80;92.50;;;;;;5103330;28;20024;-46
2022/07/03 00:38:27;;;;;;;6.53;2.30;;;28.80;93.00;;;;;;5103384;28;20200;-45
2022/07/03 00:40:54;;;;;;;6.20;2.20;;;28.70;93.20;;;;;;5104323;28;20053;-42
2022/07/03 00:43:22;;;;;;;13.75;2.42;;;28.70;93.30;;;;;;5106956;28;20027;-44
2022/07/03 00:45:50;;;;;;;6.95;2.00;;;28.70;93.00;;;;;;5120838;28;20212;-51
2022/07/03 00:48:19;;;;;;;7.05;1.40;;;28.70;92.90;;;;;;5122473;28;20031;-43
2022/07/03 00:50:51;;;;;;;7.28;1.40;;;28.60;93.00;;;;;;5115797;28;20020;-44
2022/07/03 00:53:29;;;;;;;5.63;1.75;;;28.60;93.00;;;;;;5106733;28;20028;-44
2022/07/03 00:55:56;;;;;;;7.38;3.30;;;28.60;93.00;;;;;;5117634;28;20020;-46
2022/07/03 00:58:23;;;;;;;5.30;2.25;;;28.60;93.20;;;;;;5106968;28;20026;-41
2022/07/03 01:00:53;;;;;;;7.38;2.33;;;28.60;93.10;;;;;;5107069;28;20023;-50
2022/07/03 01:03:21;;;;;;;5.30;1.75;;;28.60;93.10;;;;;;5127304;28;20326;-47
2022/07/03 01:05:56;;;;;;;2.22;1.50;;;28.50;93.10;;;;;;5127098;28;20304;-44
2022/07/03 01:08:45;;;;;;;4.38;1.60;;;28.50;93.30;;;;;;5126637;28;20015;-44
2022/07/03 01:11:46;;;;;;;3.88;1.38;;;28.40;93.40;;;;;;5126560;28;20043;-44
2022/07/03 01:14:13;;;;;;;6.72;1.33;;;28.40;93.20;;;;;;5125004;28;20271;-47
2022/07/03 01:16:49;;;;;;;3.85;1.52;;;28.40;93.30;;;;;;5126895;28;20190;-51
2022/07/03 01:19:30;;;;;;;5.22;1.40;;;28.40;93.30;;;;;;5124925;28;20050;-48
2022/07/03 01:22:09;;;;;;;7.10;1.53;;;28.30;93.40;;;;;;5119677;28;20043;-44
2022/07/03 01:24:39;;;;;;;6.93;1.40;;;28.30;93.40;;;;;;5127030;28;20234;-44
2022/07/03 01:27:11;;;;;;;8.48;1.60;;;28.30;93.40;;;;;;5120216;28;20028;-45
2022/07/03 01:29:59;;;;;;;5.90;1.45;;;28.30;93.50;;;;;;5118189;28;19953;-48
2022/07/03 01:32:30;;;;;;;5.55;1.45;;;28.20;93.50;;;;;;5126847;28;20061;-45
2022/07/03 01:34:59;;;;;;;8.75;1.92;;;28.20;93.60;;;;;;5126769;28;20204;-47
2022/07/03 01:37:30;;;;;;;6.72;1.90;;;28.20;93.60;;;;;;5126862;28;20160;-48
2022/07/03 01:39:58;;;;;;;8.70;2.17;;;28.10;93.70;;;;;;5126675;28;20086;-46
2022/07/03 01:42:25;;;;;;;6.45;1.70;;;28.20;94.00;;;;;;5126778;28;20023;-46
2022/07/03 01:44:53;;;;;;;3.55;1.42;;;28.10;93.80;;;;;;5126276;28;20264;-44
2022/07/03 01:47:21;;;;;;;4.93;1.55;;;28.10;93.80;;;;;;5126299;28;20095;-51
2022/07/03 01:49:50;;;;;;;4.82;1.70;;;28.00;93.80;;;;;;5126326;28;20065;-45
2022/07/03 01:52:19;;;;;;;7.20;1.73;;;28.00;93.60;;;;;;5126065;28;20019;-49
2022/07/03 01:54:47;;;;;;;5.03;1.67;;;28.00;93.70;;;;;;5126045;28;20083;-44
2022/07/03 01:57:15;;;;;;;9.73;1.75;;;28.00;93.80;;;;;;5126110;28;20019;-46
2022/07/03 01:59:42;;;;;;;6.35;1.83;;;27.90;93.80;;;;;;5119159;28;20082;-43
2022/07/03 02:02:25;;;;;;;7.22;1.80;;;27.90;93.90;;;;;;5117974;28;20022;-44
2022/07/03 02:05:07;;;;;;;16.92;3.40;;;28.00;94.00;;;;;;5108349;28;20297;-45
2022/07/03 02:07:42;;;;;;;;;;;27.90;94.10;;;;;;5105462;28;20031;-49
2022/07/03 02:10:10;;;;;;;8.13;1.90;;;27.90;94.10;;;;;;5105030;28;20268;-50
2022/07/03 02:12:51;;;;;;;4.15;1.50;;;27.80;94.30;;;;;;5105085;28;20047;-43
2022/07/03 02:15:30;;;;;;;4.07;1.80;;;27.80;94.20;;;;;;5099989;28;20031;-44
2022/07/03 02:18:00;;;;;;;5.47;1.55;;;27.80;94.20;;;;;;5105106;28;20384;-44
2022/07/03 02:20:34;;;;;;;6.78;1.90;;;27.80;94.00;;;;;;5105022;28;20368;-46
2022/07/03 02:23:02;;;;;;;7.68;1.50;;;27.80;94.10;;;;;;5104865;28;20032;-45
2022/07/03 02:25:36;;;;;;;4.97;1.60;;;27.80;93.90;;;;;;5104829;28;20016;-47
2022/07/03 02:28:05;;;;;;;5.05;1.55;;;27.80;93.90;;;;;;5104743;28;20047;-49
2022/07/03 02:30:36;;;;;;;6.13;1.52;;;27.80;93.70;;;;;;5104675;28;20034;-53
2022/07/03 02:33:05;;;;;;;4.68;1.48;;;27.80;93.70;;;;;;5104099;28;20052;-46
2022/07/03 02:35:35;;;;;;;6.72;1.85;;;27.80;93.70;;;;;;5104362;28;20022;-47
2022/07/03 02:38:17;;;;;;;5.80;1.98;;;27.80;93.80;;;;;;5103723;28;20024;-45
2022/07/03 02:41:05;;;;;;;2.70;1.65;;;27.80;93.80;;;;;;5104165;28;20016;-44
2022/07/03 02:43:47;;;;;;;11.75;9.05;;;27.70;93.80;;;;;;5104080;28;20066;-45
2022/07/03 02:46:48;;;;;;;6.90;5.95;;;27.70;94.00;;;;;;5103941;28;20075;-44
2022/07/03 02:49:43;;;;;;;5.28;2.72;;;27.70;94.00;;;;;;5100042;28;20097;-50
2022/07/03 02:52:43;;;;;;;6.68;1.92;;;27.60;94.00;;;;;;5104084;28;20083;-50
2022/07/03 02:55:45;;;;;;;5.55;1.70;;;27.60;94.10;;;;;;5103667;28;20320;-50
2022/07/03 02:58:29;;;;;;;2.95;1.77;;;27.60;94.30;;;;;;5103830;28;20024;-44
2022/07/03 03:01:20;;;;;;;3.17;1.77;;;27.60;94.30;;;;;;5104064;28;20016;-47
2022/07/03 03:04:10;;;;;;;2.65;1.70;;;27.60;94.40;;;;;;5103752;28;20027;-45
2022/07/03 03:06:37;;;;;;;5.43;1.77;;;27.60;94.40;;;;;;5103817;28;20022;-49
2022/07/03 03:09:05;;;;;;;7.88;2.47;;;27.50;94.40;;;;;;5104225;28;20027;-47
2022/07/03 03:11:45;;;;;;;4.22;1.90;;;27.50;94.50;;;;;;5103990;28;20032;-48
2022/07/03 03:14:18;;;;;;;5.60;2.33;;;27.50;94.60;;;;;;5104409;28;20242;-46
2022/07/03 03:16:52;;;;;;;5.95;2.33;;;27.50;94.50;;;;;;5103645;28;20031;-49
2022/07/03 03:19:24;;;;;;;6.20;2.17;;;27.50;94.60;;;;;;5104071;28;20012;-44
2022/07/03 03:22:19;;;;;;;5.68;2.40;;;27.50;94.60;;;;;;5103812;28;20083;-43
2022/07/03 03:24:46;;;;;;;5.72;2.15;;;27.60;94.70;;;;;;5104091;28;20085;-49
2022/07/03 03:27:13;;;;;;;7.60;2.28;;;27.60;94.70;;;;;;5103595;28;20020;-43
2022/07/03 03:29:41;;;;;;;8.50;3.10;;;27.60;94.50;;;;;;5108792;28;20050;-45
2022/07/03 03:32:08;;;;;;;12.27;5.38;;;27.60;94.50;;;;;;5109994;28;20181;-45
2022/07/03 03:34:35;;;;;;;8.27;6.05;;;27.60;94.50;;;;;;5103490;28;20099;-42
2022/07/03 03:37:02;;;;;;;11.07;6.20;;;27.60;94.40;;;;;;5103713;28;20043;-42
2022/07/03 03:39:28;;;;;;;13.40;6.43;;;27.60;94.50;;;;;;5107041;28;20330;-43
2022/07/03 03:41:55;;;;;;;8.23;5.10;;;27.60;94.50;;;;;;5112589;28;20024;-42
2022/07/03 03:44:22;;;;;;;10.73;5.18;;;27.60;94.50;;;;;;5104678;28;20032;-43
2022/07/03 03:46:50;;;;;;;12.65;4.25;;;27.60;94.50;;;;;;5103730;28;20027;-49
2022/07/03 03:49:16;;;;;;;;;;;27.60;94.40;;;;;;5104160;28;20356;-45
2022/07/03 03:51:44;;;;;;;;;;;27.60;94.40;;;;;;5104558;28;19908;-43
2022/07/03 03:54:10;;;;;;;;;;;27.60;94.30;;;;;;5104618;28;20192;-43
2022/07/03 03:56:36;;;;;;;;;;;27.60;94.30;;;;;;5104006;28;19908;-48
2022/07/03 03:59:02;;;;;;;9.65;3.42;;;27.60;94.30;;;;;;5104632;28;20196;-42
2022/07/03 04:01:29;;;;;;;;;;;27.60;94.30;;;;;;5104301;28;20303;-43
2022/07/03 04:03:55;;;;;;;;;;;27.60;94.30;;;;;;5104098;28;20180;-45
2022/07/03 04:06:21;;;;;;;;;;;27.60;94.30;;;;;;5104376;28;19900;-43
2022/07/03 04:08:47;;;;;;;;;;;27.60;94.20;;;;;;5104115;28;19908;-43
2022/07/03 04:11:13;;;;;;;;;;;27.60;94.20;;;;;;5115636;28;19903;-43
2022/07/03 04:13:39;;;;;;;;;;;27.60;94.20;;;;;;5104312;28;20112;-44
2022/07/03 04:16:05;;;;;;;;;;;27.60;94.20;;;;;;5105812;28;19900;-47
2022/07/03 04:18:31;;;;;;;;;;;27.60;94.00;;;;;;5108396;28;19915;-47
2022/07/03 04:20:57;;;;;;;;;;;27.60;94.00;;;;;;5107745;28;19931;-43
2022/07/03 04:23:23;;;;;;;;;;;27.60;94.00;;;;;;5114723;28;19942;-43
2022/07/03 04:25:50;;;;;;;;;;;27.60;94.10;;;;;;5112647;28;20096;-43
2022/07/03 04:28:16;;;;;;;;;;;27.60;94.00;;;;;;5107682;28;19915;-42
2022/07/03 04:30:42;;;;;;;;;;;27.50;94.00;;;;;;5107556;28;19900;-44
2022/07/03 04:33:08;;;;;;;;;;;27.50;93.90;;;;;;5107190;28;20275;-43
2022/07/03 04:35:34;;;;;;;;;;;27.50;93.90;;;;;;5107531;28;19900;-46
2022/07/03 04:38:00;;;;;;;;;;;27.50;93.90;;;;;;5108023;28;20088;-44
2022/07/03 04:40:27;;;;;;;;;;;27.50;93.90;;;;;;5117500;28;19904;-44
2022/07/03 04:42:53;;;;;;;;;;;27.50;94.00;;;;;;5108372;28;19908;-44
2022/07/03 04:45:19;;;;;;;;;;;27.50;94.00;;;;;;5107207;28;19906;-52
2022/07/03 04:47:45;;;;;;;;;;;27.50;94.10;;;;;;5107309;28;19915;-48
2022/07/03 04:50:11;;;;;;;;;;;27.50;94.00;;;;;;5106701;28;19899;-50
2022/07/03 04:52:37;;;;;;;;;;;27.50;93.90;;;;;;5107059;28;20192;-45
2022/07/03 04:55:03;;;;;;;;;;;27.50;93.90;;;;;;5106941;28;19904;-43
2022/07/03 04:57:30;;;;;;;;;;;27.50;93.90;;;;;;5106842;28;19904;-47
2022/07/03 04:59:56;;;;;;;;;;;27.50;93.90;;;;;;5106921;28;19978;-50
2022/07/03 05:02:22;;;;;;;;;;;27.40;93.80;;;;;;5106810;28;20069;-46
2022/07/03 05:04:48;;;;;;;;;;;27.50;93.90;;;;;;5106993;28;20180;-49
2022/07/03 05:07:14;;;;;;;;;;;27.50;93.80;;;;;;5106579;28;19900;-45
2022/07/03 05:09:40;;;;;;;;;;;27.40;93.80;;;;;;5106911;28;20184;-46
2022/07/03 05:12:06;;;;;;;;;;;27.40;93.80;;;;;;5106835;28;20052;-44
2022/07/03 05:14:33;;;;;;;;;;;27.40;93.80;;;;;;5106529;28;19912;-47
2022/07/03 05:16:59;;;;;;;;;;;27.40;93.80;;;;;;5106712;28;19900;-44
2022/07/03 05:19:25;;;;;;;;;;;27.40;93.70;;;;;;5107066;28;20073;-44
2022/07/03 05:21:51;;;;;;;;;;;27.40;93.60;;;;;;5106496;28;19900;-50
2022/07/03 05:24:17;;;;;;;;;;;27.40;93.60;;;;;;5107136;28;19931;-44
2022/07/03 05:26:43;;;;;;;;;;;27.40;93.70;;;;;;5106244;28;20029;-44
2022/07/03 05:29:09;;;;;;;;;;;27.30;93.70;;;;;;5106874;28;19954;-47
2022/07/03 05:31:36;;;;;;;;;;;27.30;93.60;;;;;;5106491;28;20101;-49
2022/07/03 05:34:02;;;;;;;;;;;27.30;93.60;;;;;;5106330;28;19916;-48
2022/07/03 05:36:28;;;;;;;;;;;27.30;93.50;;;;;;5106285;28;19900;-50
2022/07/03 05:41:38;;;;;;;;;;;27.30;93.50;;;;;;5106559;28;19922;-45
2022/07/03 05:44:05;;;;;;;;;;;27.30;93.50;;;;;;5106491;28;19914;-44
2022/07/03 05:46:31;;;;;;;;;;;27.30;93.50;;;;;;5106306;28;19900;-46
2022/07/03 05:48:57;;;;;;;;;;;27.30;93.50;;;;;;5106372;28;19908;-46
2022/07/03 05:51:23;;;;;;;;;;;27.30;93.50;;;;;;5106035;28;20211;-43
2022/07/03 05:53:49;;;;;;;;;;;27.30;93.60;;;;;;5106521;28;19953;-46
2022/07/03 05:56:15;;;;;;;;;;;27.30;93.50;;;;;;5106066;28;19900;-51
2022/07/03 05:58:41;;;;;;;;;;;27.30;93.60;;;;;;5106042;28;19950;-44
2022/07/03 06:01:08;;;;;;;;;;;27.30;93.70;;;;;;5106061;28;20100;-52
2022/07/03 06:03:34;;;;;;;;;;;27.30;93.80;;;;;;5106202;28;20074;-44
2022/07/03 06:06:00;;;;;;;;;;;27.20;93.80;;;;;;5105742;28;20096;-45
2022/07/03 06:08:27;;;;;;;;;;;27.20;93.90;;;;;;5106157;28;19958;-44
2022/07/03 06:10:53;;;;;;;;;;;27.20;93.90;;;;;;5105832;28;19900;-45
2022/07/03 06:13:19;;;;;;;;;;;27.20;94.00;;;;;;5105642;28;19953;-47
2022/07/03 06:15:46;;;;;;;;;;;27.20;94.10;;;;;;5105678;28;19952;-47
2022/07/03 06:18:12;;;;;;;;;;;27.20;94.10;;;;;;5105757;28;19912;-48
2022/07/03 06:20:38;;;;;;;;;;;27.20;94.20;;;;;;5105626;28;19994;-56
2022/07/03 06:23:04;;;;;;;;;;;27.20;94.30;;;;;;5105707;28;20107;-52
2022/07/03 06:25:30;;;;;;;;;;;27.10;94.20;;;;;;5105635;28;19899;-44
2022/07/03 06:27:57;;;;;;;;;;;27.10;94.20;;;;;;5105601;28;19969;-48
2022/07/03 06:30:23;;;;;;;;;;;27.10;94.20;;;;;;5105305;28;20208;-45
2022/07/03 06:32:49;;;;;;;;;;;27.10;94.30;;;;;;5105275;28;20122;-43
2022/07/03 06:35:15;;;;;;;;;;;27.10;94.40;;;;;;5105265;28;19963;-44
2022/07/03 06:37:41;;;;;;;;;;;27.10;94.30;;;;;;5104844;28;19908;-45
2022/07/03 06:40:08;;;;;;;;;;;27.10;94.30;;;;;;5104837;28;19938;-44
2022/07/03 06:42:34;;;;;;;;;;;27.10;94.40;;;;;;5105263;28;20069;-44
2022/07/03 06:45:00;;;;;;;;;;;27.10;94.50;;;;;;5104884;28;19900;-44
2022/07/03 06:47:26;;;;;;;;;;;27.10;94.40;;;;;;5105076;28;20240;-44
2022/07/03 06:49:52;;;;;;;;;;;27.10;94.40;;;;;;5105137;28;19900;-45
2022/07/03 06:52:18;;;;;;;;;;;27.00;94.30;;;;;;5104785;28;19907;-44
2022/07/03 06:54:44;;;;;;;;;;;27.00;94.50;;;;;;5104871;28;20099;-47
2022/07/03 06:57:11;;;;;;;;;;;27.00;94.50;;;;;;5105090;28;19942;-45
2022/07/03 06:59:37;;;;;;;;;;;27.10;94.50;;;;;;5105079;28;19908;-47
2022/07/03 07:02:03;;;;;;;;;;;27.00;94.50;;;;;;5104854;28;19903;-44
2022/07/03 07:04:30;;;;;;;;;;;27.00;94.50;;;;;;5105379;28;19908;-45
2022/07/03 07:06:56;;;;;;;;;;;27.00;94.50;;;;;;5104767;28;19971;-45
2022/07/03 07:09:22;;;;;;;;;;;27.00;94.60;;;;;;5105195;28;19922;-46
2022/07/03 07:11:48;;;;;;;;;;;27.00;94.70;;;;;;5104867;28;19900;-48
2022/07/03 07:14:14;;;;;;;;;;;27.00;94.70;;;;;;5104560;28;20112;-48
2022/07/03 07:16:40;;;;;;;;;;;27.00;94.70;;;;;;5104645;28;19900;-48
2022/07/03 07:19:06;;;;;;;;;;;27.00;94.80;;;;;;5105094;28;19916;-50
2022/07/03 07:21:32;;;;;;;;;;;27.00;94.80;;;;;;5104564;28;19966;-54
2022/07/03 07:23:59;;;;;;;;;;;27.00;94.80;;;;;;5104349;28;19950;-43
2022/07/03 07:26:25;;;;;;;;;;;26.90;94.70;;;;;;5104459;28;19907;-46
2022/07/03 07:28:52;;;;;;;;;;;26.90;94.70;;;;;;5104837;28;20189;-42
2022/07/03 07:31:18;;;;;;;;;;;26.90;94.80;;;;;;5104249;28;20100;-44
2022/07/03 07:33:44;;;;;;;;;;;26.90;94.80;;;;;;5104077;28;19916;-44
2022/07/03 07:36:10;;;;;;;;;;;26.90;94.80;;;;;;5104366;28;19907;-44
2022/07/03 07:38:36;;;;;;;;;;;26.90;95.00;;;;;;5104415;28;19929;-48
2022/07/03 07:41:02;;;;;;;;;;;26.90;94.90;;;;;;5104573;28;19900;-45
2022/07/03 07:43:28;;;;;;;;;;;26.90;94.90;;;;;;5104535;28;19915;-51
2022/07/03 07:45:54;;;;;;;;;;;26.90;94.90;;;;;;5104220;28;19908;-51
2022/07/03 07:48:20;;;;;;;;;;;26.90;95.00;;;;;;5104466;28;19957;-43
2022/07/03 07:50:47;;;;;;;;;;;26.90;94.90;;;;;;5106836;28;19967;-44
2022/07/03 07:53:13;;;;;;;;;;;26.90;94.90;;;;;;5108536;28;20184;-50
2022/07/03 07:55:39;;;;;;;;;;;26.90;94.90;;;;;;5108318;28;19907;-50
2022/07/03 07:58:05;;;;;;;;;;;26.90;95.00;;;;;;5108660;28;20078;-45
2022/07/03 08:00:31;;;;;;;;;;;26.90;94.90;;;;;;5108500;28;19900;-53
2022/07/03 08:05:41;;;;;;;;;;;26.90;94.70;;;;;;5108356;28;19907;-47
2022/07/03 08:08:08;;;;;;;;;;;26.90;94.70;;;;;;5107981;28;19974;-52
2022/07/03 08:10:35;;;;;;;;;;;26.90;94.70;;;;;;5108430;28;20131;-52
2022/07/03 08:13:01;;;;;;;;;;;26.90;94.80;;;;;;5108152;28;19912;-45
2022/07/03 08:15:27;;;;;;;;;;;26.90;94.80;;;;;;5107948;28;20010;-44
2022/07/03 08:17:53;;;;;;;;;;;26.90;94.90;;;;;;5108245;28;20132;-48
2022/07/03 08:20:19;;;;;;;;;;;26.90;94.90;;;;;;5108053;28;19900;-45
2022/07/03 08:22:45;;;;;;;;;;;26.90;95.00;;;;;;5107809;28;19915;-47
2022/07/03 08:25:11;;;;;;;;;;;26.90;95.10;;;;;;5108090;28;19900;-51
2022/07/03 08:27:38;;;;;;;;;;;26.90;95.00;;;;;;5107649;28;19915;-43
2022/07/03 08:30:04;;;;;;;;;;;26.90;95.10;;;;;;5107783;28;19900;-47
2022/07/03 08:32:30;;;;;;;;;;;26.90;95.20;;;;;;5107381;28;20002;-43
2022/07/03 08:34:56;;;;;;;;;;;26.80;95.10;;;;;;5107540;28;19995;-47
2022/07/03 08:37:22;;;;;;;;;;;26.90;95.20;;;;;;5107622;28;20181;-43
2022/07/03 08:39:49;;;;;;;;;;;26.80;95.10;;;;;;5107520;28;19904;-49
2022/07/03 08:42:15;;;;;;;;;;;26.90;95.20;;;;;;5107567;28;19927;-44
2022/07/03 08:44:43;;;;;;;;;;;26.90;95.30;;;;;;5107628;28;19942;-44
2022/07/03 08:47:11;;;;;;;;;;;26.90;95.30;;;;;;5107548;28;19942;-44
2022/07/03 08:49:38;;;;;;;;;;;26.90;95.30;;;;;;5107599;28;19915;-45
2022/07/03 08:52:07;;;;;;;;;;;26.80;95.20;;;;;;5107416;28;19946;-53
2022/07/03 08:54:33;;;;;;;;;;;26.80;95.30;;;;;;5107673;28;19935;-43
2022/07/03 08:57:01;;;;;;;;;;;26.80;95.40;;;;;;5107385;28;19907;-44
2022/07/03 08:59:32;;;;;;;;;;;26.80;95.40;;;;;;5107626;28;19923;-42
2022/07/03 09:01:59;;;;;;;;;;;26.80;95.40;;;;;;5106641;28;19922;-47
2022/07/03 09:04:25;;;;;;;;;;;26.70;95.40;;;;;;5107656;28;19912;-46
2022/07/03 09:06:52;;;;;;;;;;;26.80;95.40;;;;;;5107185;28;20100;-46
2022/07/03 09:09:18;;;;;;;;;;;26.80;95.40;;;;;;5106931;28;19985;-48
2022/07/03 09:11:45;;;;;;;;;;;26.80;95.40;;;;;;5106970;28;19938;-47
2022/07/03 09:14:11;;;;;;;;;;;26.80;95.40;;;;;;5107373;28;19919;-44
2022/07/03 09:16:37;;;;;;;;;;;26.80;95.40;;;;;;5106779;28;19900;-44
2022/07/03 09:19:04;;;;;;;;;;;26.90;95.50;;;;;;5107156;28;19908;-46
2022/07/03 09:21:37;;;;;;;;;;;26.80;95.50;;;;;;5106727;28;19938;-45
2022/07/03 09:24:05;;;;;;;;;;;26.80;95.50;;;;;;5107038;28;19936;-44
2022/07/03 09:26:31;;;;;;;;;;;26.80;95.50;;;;;;5106666;28;19900;-48
2022/07/03 09:28:58;;;;;;;;;;;26.80;95.50;;;;;;5107077;28;19907;-47
2022/07/03 09:31:25;;;;;;;;;;;26.80;95.50;;;;;;5106505;28;19900;-45
2022/07/03 09:33:51;;;;;;;;;;;26.80;95.50;;;;;;5106584;28;19916;-46
2022/07/03 09:36:18;;;;;;;;;;;26.80;95.50;;;;;;5106458;28;19900;-45
2022/07/03 09:38:45;;;;;;;;;;;26.80;95.50;;;;;;5106580;28;19930;-43
2022/07/03 09:41:11;;;;;;;;;;;26.80;95.60;;;;;;5106283;28;20177;-44
2022/07/03 09:43:41;;;;;;;;;;;26.80;95.60;;;;;;5106710;28;19911;-51
2022/07/03 09:46:07;;;;;;;;;;;26.80;95.60;;;;;;5106109;28;19911;-48
2022/07/03 09:48:34;;;;;;;;;;;26.80;95.70;;;;;;5106385;28;19912;-44
2022/07/03 09:51:19;;;;;;;;;;;26.80;95.70;;;;;;5106152;28;19904;-46
2022/07/03 09:53:55;;;;;;;;;;;26.70;95.70;;;;;;5106081;28;19907;-43
2022/07/03 09:56:22;;;;;;;;;;;26.70;95.70;;;;;;5106033;28;19904;-49
2022/07/03 09:59:00;;;;;;;;;;;26.70;95.80;;;;;;5106289;28;19904;-44
2022/07/03 10:01:26;;;;;;;;;;;26.70;95.90;;;;;;5106489;28;19943;-43
2022/07/03 10:03:53;;;;;;;;;;;26.70;95.80;;;;;;5106145;28;19904;-47
2022/07/03 10:06:20;;;;;;;;;;;26.70;95.80;;;;;;5106009;28;19904;-49
2022/07/03 10:08:46;;;;;;;;;;;26.80;95.80;;;;;;5106484;28;19904;-44
2022/07/03 10:11:13;;;;;;;;;;;26.80;95.90;;;;;;5105772;28;19904;-44
2022/07/03 10:13:39;;;;;;;;;;;26.80;96.10;;;;;;5105023;28;19908;-46
2022/07/03 10:16:06;;;;;;;;;;;26.80;95.90;;;;;;5105529;28;19970;-44
2022/07/03 10:18:37;;;;;;;;;;;26.70;95.80;;;;;;5105868;28;19904;-44
2022/07/03 10:21:05;;;;;;;;;;;26.80;95.70;;;;;;5105557;28;19927;-45
2022/07/03 10:23:32;;;;;;;;;;;26.80;95.50;;;;;;5106060;28;19979;-41
2022/07/03 10:25:58;;;;;;;;;;;26.70;95.50;;;;;;5105461;28;19945;-43
2022/07/03 10:28:24;;;;;;;;;;;26.70;95.60;;;;;;5105957;28;20065;-43
2022/07/03 10:30:51;;;;;;;;;;;26.70;95.70;;;;;;5105483;28;19904;-43
2022/07/03 10:33:17;;;;;;;;;;;26.70;95.70;;;;;;5105138;28;19916;-43
2022/07/03 10:35:53;;;;;;;;;;;26.70;95.70;;;;;;5105315;28;19900;-47
2022/07/03 10:38:40;;;;;;;;;;;26.70;95.70;;;;;;5105344;28;19908;-51
2022/07/03 10:46:45;;;;;;;;;;;26.60;96.00;;;;;;5105361;28;19962;-47
2022/07/03 10:49:11;;;;;;;;;;;26.60;96.00;;;;;;5105508;28;20122;-46
2022/07/03 10:51:49;;;;;;;;;;;26.60;96.00;;;;;;5105009;28;19907;-48
2022/07/03 10:54:36;;;;;;;;;;;26.60;96.00;;;;;;5105205;28;19947;-46
2022/07/03 10:57:13;;;;;;;;;;;26.60;96.00;;;;;;5104921;28;20002;-46
2022/07/03 10:59:45;;;;;;;;;;;26.60;96.00;;;;;;5104804;28;19907;-44
2022/07/03 11:02:20;;;;;;;;;;;26.60;96.10;;;;;;5104992;28;19900;-59
2022/07/03 11:07:32;;;;;;;;;;;26.60;95.90;;;;;;5104754;28;19904;-44
2022/07/03 11:10:13;;;;;;;;;;;26.60;95.90;;;;;;5104762;28;19900;-48
2022/07/03 11:12:58;;;;;;;;;;;26.60;96.00;;;;;;5104669;28;19942;-47
2022/07/03 11:15:43;;;;;;;;;;;26.60;96.00;;;;;;5104490;28;19903;-43
2022/07/03 11:18:10;;;;;;;;;;;26.60;96.00;;;;;;5105010;28;20132;-43
2022/07/03 11:20:36;;;;;;;;;;;26.60;96.00;;;;;;5086551;28;19900;-48
2022/07/03 11:23:18;;;;;;;;;;;26.60;96.00;;;;;;5104552;28;20239;-54
2022/07/03 11:25:48;;;;;;;;;;;26.50;96.00;;;;;;5104119;28;19900;-43
2022/07/03 11:28:32;;;;;;;;;;;26.50;96.10;;;;;;5104560;28;19943;-42
2022/07/03 11:31:13;;;;;;;;;;;26.50;96.10;;;;;;5105083;28;19907;-48
2022/07/03 11:33:43;;;;;;;;;;;26.60;96.10;;;;;;5104052;28;20212;-43
2022/07/03 11:36:15;;;;;;;;;;;26.60;96.10;;;;;;5103941;28;20147;-47
2022/07/03 11:38:46;;;;;;;;;;;26.60;96.00;;;;;;5104565;28;19957;-48
2022/07/03 11:41:15;;;;;;;;;;;26.50;96.00;;;;;;5104595;28;19912;-43
2022/07/03 11:43:51;;;;;;;;;;;26.50;95.90;;;;;;5104699;28;19950;-48
2022/07/03 11:46:22;;;;;;;;;;;26.50;96.10;;;;;;5104249;28;19919;-47
2022/07/03 11:48:48;;;;;;;;;;;26.50;95.90;;;;;;5104500;28;20152;-59
2022/07/03 11:51:15;;;;;;;;;;;26.50;96.00;;;;;;5104072;28;20145;-47
2022/07/03 11:53:41;;;;;;;;;;;26.50;95.90;;;;;;5104597;28;19950;-42
2022/07/03 11:56:08;;;;;;;;;;;26.50;96.00;;;;;;5104405;28;20189;-45
2022/07/03 11:58:47;;;;;;;;;;;26.50;96.10;;;;;;5104288;28;19935;-46
2022/07/03 12:01:23;;;;;;;;;;;26.50;96.10;;;;;;5104168;28;19912;-44
2022/07/03 12:03:49;;;;;;;;;;;26.50;96.10;;;;;;5104727;28;19904;-50
2022/07/03 12:06:16;;;;;;;;;;;26.50;96.20;;;;;;5104170;28;20212;-44
2022/07/03 12:08:46;;;;;;;;;;;26.50;96.20;;;;;;5104760;28;19931;-44
2022/07/03 12:11:13;;;;;;;;;;;26.50;96.20;;;;;;5103875;28;19934;-45
2022/07/03 12:13:39;;;;;;;;;;;26.50;96.30;;;;;;5104429;28;20216;-45
2022/07/03 12:16:07;;;;;;;;;;;26.50;96.20;;;;;;5103973;28;19913;-46
2022/07/03 12:18:53;;;;;;;;;;;26.50;96.40;;;;;;5104353;28;19964;-44
2022/07/03 12:21:20;;;;;;;;;;;26.50;96.30;;;;;;5104171;28;19939;-45
2022/07/03 12:23:46;;;;;;;;;;;26.50;96.20;;;;;;5103969;28;20084;-49
2022/07/03 12:26:13;;;;;;;;;;;26.50;96.30;;;;;;5104094;28;19920;-48
2022/07/03 12:28:39;;;;;;;;;;;26.50;96.40;;;;;;5104604;28;20088;-45
2022/07/03 12:31:06;;;;;;;;;;;26.50;96.40;;;;;;5103730;28;20193;-45
2022/07/03 12:33:35;;;;;;;;;;;26.60;96.40;;;;;;5103854;28;19920;-48
2022/07/03 12:36:08;;;;;;;;;;;26.50;96.40;;;;;;5103816;28;19983;-51
2022/07/03 12:38:37;;;;;;;;;;;26.60;96.40;;;;;;5108063;28;19946;-45
2022/07/03 12:41:05;;;;;;;;;;;26.60;96.50;;;;;;5107444;28;19913;-49
2022/07/03 12:43:40;;;;;;;;;;;26.60;96.50;;;;;;5107789;28;19904;-45
2022/07/03 12:46:16;;;;;;;;;;;26.60;96.50;;;;;;5107374;28;19912;-44
2022/07/03 12:48:57;;;;;;;;;;;26.60;96.50;;;;;;5107929;28;19904;-49
2022/07/03 12:51:39;;;;;;;;;;;26.60;96.50;;;;;;5107351;28;19912;-45
2022/07/03 12:54:08;;;;;;;;;;;26.60;96.40;;;;;;5107831;28;19971;-44
2022/07/03 12:56:34;;;;;;;;;;;26.60;96.40;;;;;;5107110;28;20235;-44
2022/07/03 12:59:18;;;;;;;;;;;26.60;96.40;;;;;;5107636;28;19965;-47
2022/07/03 13:02:04;;;;;;;;;;;26.60;96.40;;;;;;5107082;28;19965;-44
2022/07/03 13:04:39;;;;;;;;;;;26.70;96.40;;;;;;5107468;28;19933;-48
2022/07/03 13:07:06;;;;;;;;;;;26.70;96.40;;;;;;5106553;28;19916;-45
2022/07/03 13:09:34;;;;;;;;;;;26.80;96.40;;;;;;5106726;28;19904;-49
2022/07/03 13:12:00;;;;;;;;;;;26.80;96.30;;;;;;5106864;28;19948;-54
2022/07/03 13:14:26;;;;;;;;;;;26.90;96.10;;;;;;5107368;28;19916;-45
2022/07/03 13:16:53;;;;;;;;;;;27.00;96.00;;;;;;5107209;28;19916;-44
2022/07/03 13:19:23;;;;;;;;;;;27.00;96.00;;;;;;5107310;28;19939;-51
2022/07/03 13:21:51;;;;;;;;;;;27.10;96.10;;;;;;5106658;28;19912;-45
2022/07/03 13:24:18;;;;;;;;;;;27.20;96.00;;;;;;5107074;28;19910;-45
2022/07/03 13:26:44;;;;;;;;;;;27.20;95.90;;;;;;5106431;28;19946;-45
2022/07/03 13:29:11;;;;;;;;;;;27.20;95.80;;;;;;5106932;28;20153;-49
2022/07/03 13:31:37;;;;;;;;;;;27.20;95.70;;;;;;5106574;28;19916;-43
2022/07/03 13:34:03;;;;;;;;;;;27.30;95.60;;;;;;5106233;28;19979;-48
2022/07/03 13:36:30;;;;;;;;;;;27.30;95.50;;;;;;5106188;28;19940;-46
2022/07/03 13:38:57;;;;;;;;;;;27.30;95.60;;;;;;5106450;28;20185;-44
2022/07/03 13:41:23;;;;;;;;;;;27.30;95.40;;;;;;5105870;28;19908;-51
2022/07/03 13:43:50;;;;;;;;;;;27.30;95.40;;;;;;5106067;28;19955;-50
2022/07/03 13:46:17;;;;;;;;;;;27.40;95.10;;;;;;5105817;28;19943;-50
2022/07/03 13:48:43;;;;;;;;;;;27.40;95.20;;;;;;5105945;28;19908;-50
2022/07/03 13:51:09;;;;;;;;;;;27.50;95.30;;;;;;5105630;28;20193;-46
2022/07/03 13:53:36;;;;;;;;;;;27.50;95.20;;;;;;5105810;28;19971;-46
2022/07/03 13:56:02;;;;;;;;;;;27.40;95.00;;;;;;5105751;28;19908;-55
2022/07/03 13:58:28;;;;;;;;;;;27.50;95.00;;;;;;5105968;28;20092;-51
2022/07/03 14:00:54;;;;;;;;;;;27.50;94.90;;;;;;5105624;28;20356;-48
2022/07/03 14:03:21;;;;;;;;;;;27.50;95.00;;;;;;5106026;28;19946;-50
2022/07/03 14:05:50;;;;;;;;;;;27.50;95.00;;;;;;5105746;28;19931;-51
2022/07/03 14:08:20;;;;;;;;;;;27.50;94.90;;;;;;5105803;28;19908;-54
2022/07/03 14:10:46;;;;;;;;;;;27.50;95.00;;;;;;5105604;28;20088;-47
2022/07/03 14:13:13;;;;;;;;;;;27.50;94.90;;;;;;5105751;28;19931;-43
2022/07/03 14:15:39;;;;;;;;;;;27.50;94.90;;;;;;5105533;28;19979;-51
2022/07/03 14:18:05;;;;;;;;;;;27.50;94.90;;;;;;5105775;28;19943;-47